createdAt,value
2022-07-30T00:00:39.713Z,78.89
2022-07-30T00:03:08.341Z,78.79
2022-07-30T00:05:36.912Z,78.63
2022-07-30T00:08:05.651Z,78.41
2022-07-30T00:10:34.195Z,78.67
2022-07-30T00:13:02.640Z,78.71
2022-07-30T00:15:32.613Z,78.62
2022-07-30T00:18:01.091Z,78.53
2022-07-30T00:20:29.838Z,78.43
2022-07-30T00:23:04.018Z,78.25
2022-07-30T00:25:33.901Z,78.20
2022-07-30T00:28:02.523Z,78.29
2022-07-30T00:30:32.674Z,78.30
2022-07-30T00:33:01.668Z,78.44
2022-07-30T00:35:30.195Z,78.90
2022-07-30T00:37:58.688Z,78.90
2022-07-30T00:40:27.408Z,78.86
2022-07-30T00:42:56.046Z,78.88
2022-07-30T00:45:24.526Z,79.02
2022-07-30T00:47:54.435Z,78.65
2022-07-30T00:50:22.924Z,78.84
2022-07-30T00:52:52.484Z,78.50
2022-07-30T00:55:21.018Z,78.38
2022-07-30T00:57:49.548Z,78.50
2022-07-30T01:00:19.983Z,78.83
2022-07-30T01:02:48.564Z,78.82
2022-07-30T01:05:18.605Z,78.87
2022-07-30T01:07:47.757Z,78.95
2022-07-30T01:10:17.295Z,79.08
2022-07-30T01:12:48.067Z,79.14
2022-07-30T01:15:17.208Z,78.79
2022-07-30T01:17:49.135Z,78.71
2022-07-30T01:20:26.937Z,78.74
2022-07-30T01:23:03.576Z,78.74
2022-07-30T01:25:56.714Z,78.81
2022-07-30T01:28:28.839Z,78.46
2022-07-30T01:30:59.156Z,78.65
2022-07-30T01:33:28.939Z,78.77
2022-07-30T01:35:59.375Z,79.05
2022-07-30T01:38:31.081Z,79.15
2022-07-30T01:41:07.598Z,79.31
2022-07-30T01:43:37.072Z,79.44
2022-07-30T01:46:07.094Z,79.57
2022-07-30T01:48:40.614Z,79.57
2022-07-30T01:51:11.236Z,79.65
2022-07-30T01:53:42.147Z,79.41
2022-07-30T01:56:16.903Z,79.46
2022-07-30T01:58:51.734Z,79.27
2022-07-30T02:01:20.367Z,79.41
2022-07-30T02:03:49.107Z,79.73
2022-07-30T02:06:22.797Z,79.62
2022-07-30T02:08:55.619Z,79.33
2022-07-30T02:11:39.543Z,79.25
2022-07-30T02:14:22.089Z,79.31
2022-07-30T02:16:54.251Z,79.20
2022-07-30T02:19:26.346Z,78.99
2022-07-30T02:22:06.822Z,79.10
2022-07-30T02:24:39.679Z,79.13
2022-07-30T02:27:16.099Z,79.15
2022-07-30T02:29:47.134Z,78.96
2022-07-30T02:32:20.148Z,79.07
2022-07-30T02:34:53.380Z,79.17
2022-07-30T02:37:41.139Z,79.32
2022-07-30T02:40:16.704Z,79.20
2022-07-30T02:42:50.397Z,79.21
2022-07-30T02:45:19.536Z,79.13
2022-07-30T02:47:52.599Z,79.02
2022-07-30T02:50:22.349Z,79.00
2022-07-30T02:52:52.363Z,79.04
2022-07-30T02:55:22.784Z,78.96
2022-07-30T02:57:54.902Z,78.74
2022-07-30T03:00:25.364Z,78.92
2022-07-30T03:02:56.920Z,79.12
2022-07-30T03:05:26.315Z,79.12
2022-07-30T03:07:56.185Z,79.10
2022-07-30T03:10:27.395Z,79.45
2022-07-30T03:12:59.518Z,79.29
2022-07-30T03:15:29.850Z,79.40
2022-07-30T03:17:59.533Z,79.51
2022-07-30T03:20:31.953Z,79.58
2022-07-30T03:23:03.775Z,79.73
2022-07-30T03:25:34.059Z,79.66
2022-07-30T03:28:06.197Z,79.73
2022-07-30T03:30:35.711Z,79.73
2022-07-30T03:33:06.546Z,79.91
2022-07-30T03:35:35.666Z,80.04
2022-07-30T03:38:06.887Z,80.00
2022-07-30T03:40:35.869Z,79.86
2022-07-30T03:43:06.199Z,79.71
2022-07-30T03:45:55.847Z,79.75
2022-07-30T03:48:25.047Z,79.94
2022-07-30T03:50:55.028Z,79.74
2022-07-30T03:53:25.057Z,79.88
2022-07-30T03:55:54.783Z,79.88
2022-07-30T03:58:24.685Z,79.95
2022-07-30T04:00:53.249Z,79.83
2022-07-30T04:03:28.451Z,79.62
2022-07-30T04:05:57.282Z,79.58
2022-07-30T04:08:25.914Z,79.63
2022-07-30T04:10:54.484Z,79.53
2022-07-30T04:13:24.361Z,79.40
2022-07-30T04:16:38.757Z,79.35
2022-07-30T04:18:57.280Z,79.02
2022-07-30T04:21:27.958Z,78.85
2022-07-30T04:24:02.311Z,78.94
2022-07-30T04:26:36.077Z,78.80
2022-07-30T04:29:08.687Z,78.71
2022-07-30T04:31:40.619Z,78.85
2022-07-30T04:34:09.950Z,78.91
2022-07-30T04:36:38.421Z,78.79
2022-07-30T04:39:07.096Z,78.94
2022-07-30T04:41:48.439Z,78.92
2022-07-30T04:44:21.172Z,79.28
2022-07-30T04:46:49.802Z,79.38
2022-07-30T04:49:20.204Z,79.30
2022-07-30T04:51:50.884Z,78.94
2022-07-30T04:54:21.635Z,78.74
2022-07-30T04:56:53.587Z,78.83
2022-07-30T04:59:26.445Z,78.78
2022-07-30T05:01:58.665Z,78.90
2022-07-30T05:04:29.276Z,78.75
2022-07-30T05:06:58.942Z,78.80
2022-07-30T05:09:28.102Z,78.91
2022-07-30T05:11:59.413Z,79.06
2022-07-30T05:14:29.827Z,79.03
2022-07-30T05:16:58.899Z,79.13
2022-07-30T05:19:27.660Z,79.33
2022-07-30T05:21:56.148Z,79.34
2022-07-30T05:24:24.767Z,79.33
2022-07-30T05:26:53.389Z,79.47
2022-07-30T05:29:22.147Z,79.48
2022-07-30T05:31:53.816Z,79.22
2022-07-30T05:34:22.451Z,79.15
2022-07-30T05:36:51.098Z,79.04
2022-07-30T05:39:19.599Z,78.96
2022-07-30T05:41:48.145Z,79.20
2022-07-30T05:44:19.687Z,79.16
2022-07-30T05:46:50.887Z,79.24
2022-07-30T05:49:20.875Z,79.09
2022-07-30T05:51:50.494Z,79.05
2022-07-30T05:54:18.991Z,79.00
2022-07-30T05:56:48.047Z,78.79
2022-07-30T05:59:16.638Z,78.30
2022-07-30T06:01:45.173Z,78.52
2022-07-30T06:04:13.752Z,78.46
2022-07-30T06:06:43.617Z,78.75
2022-07-30T06:09:13.127Z,79.05
2022-07-30T06:11:41.608Z,78.66
2022-07-30T06:14:10.092Z,78.44
2022-07-30T06:16:38.628Z,78.43
2022-07-30T06:19:07.109Z,78.25
2022-07-30T06:22:05.910Z,78.18
2022-07-30T06:24:25.389Z,78.17
2022-07-30T06:26:57.782Z,78.13
2022-07-30T06:29:26.481Z,77.92
2022-07-30T06:31:55.093Z,77.81
2022-07-30T06:34:23.768Z,77.78
2022-07-30T06:36:52.316Z,77.62
2022-07-30T06:39:56.710Z,77.71
2022-07-30T06:42:10.704Z,77.78
2022-07-30T06:44:39.174Z,78.05
2022-07-30T06:47:08.892Z,78.04
2022-07-30T06:49:38.399Z,78.03
2022-07-30T06:52:07.417Z,78.08
2022-07-30T06:54:35.877Z,77.86
2022-07-30T06:57:04.670Z,77.74
2022-07-30T06:59:34.512Z,77.50
2022-07-30T07:02:23.113Z,77.48
2022-07-30T07:04:51.690Z,77.23
2022-07-30T07:07:40.331Z,76.95
2022-07-30T07:10:09.943Z,76.73
2022-07-30T07:12:38.508Z,76.49
2022-07-30T07:15:09.896Z,76.04
2022-07-30T07:17:38.351Z,75.55
2022-07-30T07:20:07.994Z,75.31
2022-07-30T07:22:36.408Z,75.26
2022-07-30T07:25:05.661Z,75.06
2022-07-30T07:27:37.464Z,74.91
2022-07-30T07:30:09.088Z,74.69
2022-07-30T07:32:37.802Z,74.59
2022-07-30T07:35:07.110Z,74.45
2022-07-30T07:37:35.910Z,74.22
2022-07-30T07:40:05.644Z,74.22
2022-07-30T07:42:34.148Z,74.27
2022-07-30T07:45:02.888Z,74.12
2022-07-30T07:47:33.054Z,74.14
2022-07-30T07:50:01.559Z,73.75
2022-07-30T07:52:30.068Z,73.71
2022-07-30T07:54:58.647Z,73.54
2022-07-30T07:57:27.838Z,73.26
2022-07-30T07:59:56.445Z,73.03
2022-07-30T08:02:25.959Z,72.81
2022-07-30T08:04:55.908Z,72.52
2022-07-30T08:07:24.524Z,72.42
2022-07-30T08:09:53.208Z,72.41
2022-07-30T08:12:21.936Z,72.08
2022-07-30T08:14:51.192Z,72.01
2022-07-30T08:17:19.856Z,71.87
2022-07-30T08:19:49.857Z,71.64
2022-07-30T08:22:19.774Z,71.30
2022-07-30T08:24:48.205Z,71.05
2022-07-30T08:27:16.708Z,70.96
2022-07-30T08:29:45.345Z,70.84
2022-07-30T08:32:13.999Z,70.64
2022-07-30T08:34:42.509Z,70.73
2022-07-30T08:37:11.355Z,70.73
2022-07-30T08:39:44.105Z,70.37
2022-07-30T08:42:14.689Z,70.10
2022-07-30T08:44:46.258Z,69.77
2022-07-30T08:47:18.450Z,69.78
2022-07-30T08:49:47.700Z,69.48
2022-07-30T08:52:16.742Z,69.23
2022-07-30T08:54:47.225Z,68.89
2022-07-30T08:57:16.672Z,68.81
2022-07-30T08:59:59.044Z,68.66
2022-07-30T09:02:31.662Z,68.48
2022-07-30T09:05:00.301Z,68.61
2022-07-30T09:07:28.933Z,68.32
2022-07-30T09:09:59.113Z,68.28
2022-07-30T09:12:37.836Z,68.42
2022-07-30T09:15:08.895Z,68.13
2022-07-30T09:17:55.289Z,67.78
2022-07-30T09:20:25.972Z,67.75
2022-07-30T09:22:56.136Z,67.66
2022-07-30T09:25:40.905Z,67.27
2022-07-30T09:28:16.102Z,67.01
2022-07-30T09:30:48.236Z,66.51
2022-07-30T09:33:18.913Z,66.11
2022-07-30T09:35:57.185Z,66.10
2022-07-30T09:38:26.284Z,65.80
2022-07-30T09:40:58.160Z,65.68
2022-07-30T09:43:28.147Z,65.35
2022-07-30T09:46:00.527Z,65.14
2022-07-30T09:48:29.807Z,64.81
2022-07-30T09:50:58.423Z,64.57
2022-07-30T09:53:28.603Z,64.32
2022-07-30T09:56:00.892Z,63.89
2022-07-30T09:58:45.566Z,63.54
2022-07-30T10:01:14.835Z,63.20
2022-07-30T10:03:44.461Z,62.41
2022-07-30T10:06:15.381Z,61.82
2022-07-30T10:08:46.956Z,61.53
2022-07-30T10:11:23.638Z,61.01
2022-07-30T10:13:55.942Z,60.84
2022-07-30T10:16:27.255Z,60.46
2022-07-30T10:19:00.125Z,60.27
2022-07-30T10:21:32.664Z,60.11
2022-07-30T10:24:06.845Z,59.60
2022-07-30T10:26:38.063Z,58.99
2022-07-30T10:29:07.026Z,58.40
2022-07-30T10:31:49.548Z,58.62
2022-07-30T10:34:23.624Z,58.66
2022-07-30T10:36:58.859Z,59.24
2022-07-30T10:39:34.775Z,59.27
2022-07-30T10:42:16.918Z,58.79
2022-07-30T10:45:02.530Z,57.76
2022-07-30T10:47:40.469Z,57.70
2022-07-30T10:50:15.795Z,57.29
2022-07-30T10:52:46.945Z,57.11
2022-07-30T10:55:16.274Z,56.34
2022-07-30T10:58:06.601Z,55.60
2022-07-30T11:00:38.343Z,55.20
2022-07-30T11:03:43.945Z,53.55
2022-07-30T11:06:28.659Z,53.47
2022-07-30T11:08:58.306Z,53.66
2022-07-30T11:12:01.366Z,53.13
2022-07-30T11:15:06.857Z,52.69
2022-07-30T11:18:12.089Z,52.91
2022-07-30T11:20:43.253Z,52.15
2022-07-30T11:23:39.998Z,50.81
2022-07-30T11:26:14.140Z,51.01
2022-07-30T11:28:45.230Z,50.54
2022-07-30T11:32:07.458Z,50.53
2022-07-30T11:34:31.298Z,50.70
2022-07-30T11:37:21.583Z,50.49
2022-07-30T11:40:13.931Z,49.89
2022-07-30T11:42:43.727Z,50.47
2022-07-30T11:45:29.475Z,49.72
2022-07-30T11:48:03.651Z,50.03
2022-07-30T11:50:34.209Z,49.78
2022-07-30T11:53:05.001Z,49.21
2022-07-30T11:55:36.987Z,48.68
2022-07-30T11:58:07.711Z,48.33
2022-07-30T12:00:39.788Z,48.21
2022-07-30T12:03:15.447Z,48.16
2022-07-30T12:05:44.822Z,47.89
2022-07-30T12:08:35.356Z,48.31
2022-07-30T12:11:02.880Z,48.12
2022-07-30T12:13:42.882Z,48.17
2022-07-30T12:16:15.917Z,48.25
2022-07-30T12:18:46.960Z,48.15
2022-07-30T12:21:16.867Z,47.52
2022-07-30T12:23:56.546Z,47.72
2022-07-30T12:26:27.182Z,47.48
2022-07-30T12:28:56.959Z,46.56
2022-07-30T12:31:25.625Z,46.00
2022-07-30T12:33:59.056Z,45.78
2022-07-30T12:36:30.946Z,45.53
2022-07-30T12:39:00.284Z,45.05
2022-07-30T12:41:46.352Z,43.79
2022-07-30T12:44:36.594Z,43.86
2022-07-30T12:47:06.530Z,44.50
2022-07-30T12:49:48.915Z,44.53
2022-07-30T12:52:28.187Z,44.50
2022-07-30T12:55:02.391Z,44.50
2022-07-30T12:57:58.024Z,44.35
2022-07-30T13:00:28.923Z,44.92
2022-07-30T13:02:58.343Z,44.90
2022-07-30T13:05:47.518Z,43.71
2022-07-30T13:08:16.135Z,44.16
2022-07-30T13:10:58.255Z,44.20
2022-07-30T13:13:27.907Z,44.50
2022-07-30T13:16:01.863Z,44.50
2022-07-30T13:18:31.547Z,44.25
2022-07-30T13:21:02.466Z,44.55
2022-07-30T13:23:31.032Z,44.63
2022-07-30T13:25:59.598Z,45.09
2022-07-30T13:28:29.831Z,45.68
2022-07-30T13:30:58.431Z,45.70
2022-07-30T13:33:27.023Z,46.39
2022-07-30T13:35:55.548Z,46.55
2022-07-30T13:38:25.460Z,46.53
2022-07-30T13:40:56.111Z,46.51
2022-07-30T13:43:26.664Z,45.93
2022-07-30T13:45:59.899Z,45.47
2022-07-30T13:48:28.638Z,45.95
2022-07-30T13:50:57.344Z,46.36
2022-07-30T13:53:27.283Z,46.31
2022-07-30T13:55:55.931Z,46.03
2022-07-30T13:58:24.422Z,45.79
2022-07-30T14:00:53.011Z,45.35
2022-07-30T14:03:21.574Z,44.89
2022-07-30T14:05:50.193Z,44.67
2022-07-30T14:08:18.692Z,44.55
2022-07-30T14:10:48.643Z,44.81
2022-07-30T14:13:20.956Z,44.63
2022-07-30T14:15:50.260Z,43.59
2022-07-30T14:18:18.884Z,43.75
2022-07-30T14:20:48.834Z,43.46
2022-07-30T14:23:18.099Z,43.20
2022-07-30T14:25:48.660Z,42.96
2022-07-30T14:28:17.392Z,42.49
2022-07-30T14:30:45.914Z,42.05
2022-07-30T14:33:14.399Z,42.13
2022-07-30T14:35:42.956Z,41.88
2022-07-30T14:38:11.459Z,41.92
2022-07-30T14:40:39.976Z,41.59
2022-07-30T14:43:09.949Z,40.87
2022-07-30T14:45:39.274Z,40.61
2022-07-30T14:48:07.950Z,40.09
2022-07-30T14:50:46.701Z,39.82
2022-07-30T14:53:24.899Z,39.43
2022-07-30T14:55:53.359Z,39.12
2022-07-30T14:58:23.620Z,39.11
2022-07-30T15:00:52.285Z,39.26
2022-07-30T15:03:22.180Z,39.31
2022-07-30T15:05:52.463Z,38.79
2022-07-30T15:08:21.202Z,38.63
2022-07-30T15:10:49.887Z,38.40
2022-07-30T15:13:18.572Z,37.76
2022-07-30T15:15:50.410Z,38.01
2022-07-30T15:18:19.116Z,38.05
2022-07-30T15:20:47.875Z,37.65
2022-07-30T15:23:16.370Z,37.64
2022-07-30T15:25:45.869Z,37.72
2022-07-30T15:28:14.425Z,37.73
2022-07-30T15:30:43.196Z,38.08
2022-07-30T15:33:13.171Z,38.14
2022-07-30T15:35:41.579Z,37.59
2022-07-30T15:38:10.053Z,37.32
2022-07-30T15:40:38.612Z,37.08
2022-07-30T15:43:10.108Z,37.06
2022-07-30T15:45:56.002Z,37.12
2022-07-30T15:48:27.644Z,37.39
2022-07-30T15:51:02.839Z,37.21
2022-07-30T15:53:32.195Z,37.07
2022-07-30T15:56:01.512Z,37.43
2022-07-30T15:58:30.128Z,37.69
2022-07-30T16:00:58.610Z,37.74
2022-07-30T16:03:28.544Z,37.68
2022-07-30T16:05:57.047Z,37.64
2022-07-30T16:08:25.638Z,37.59
2022-07-30T16:10:54.095Z,37.45
2022-07-30T16:13:22.708Z,37.22
2022-07-30T16:15:51.322Z,37.51
2022-07-30T16:18:19.816Z,38.16
2022-07-30T16:20:49.875Z,38.50
2022-07-30T16:23:21.584Z,39.06
2022-07-30T16:25:50.460Z,39.82
2022-07-30T16:28:18.939Z,40.11
2022-07-30T16:30:51.343Z,40.68
2022-07-30T16:33:20.610Z,41.03
2022-07-30T16:35:50.864Z,40.91
2022-07-30T16:38:20.411Z,40.80
2022-07-30T16:40:48.931Z,40.99
2022-07-30T16:43:19.820Z,40.88
2022-07-30T16:45:48.817Z,40.96
2022-07-30T16:48:17.380Z,41.22
2022-07-30T16:50:45.891Z,41.32
2022-07-30T16:53:16.264Z,41.93
2022-07-30T16:55:45.589Z,42.33
2022-07-30T16:58:14.676Z,42.29
2022-07-30T17:00:43.513Z,42.28
2022-07-30T17:03:12.150Z,42.37
2022-07-30T17:05:49.035Z,42.33
2022-07-30T17:08:19.242Z,42.29
2022-07-30T17:10:53.833Z,42.25
2022-07-30T17:13:22.980Z,42.58
2022-07-30T17:15:51.589Z,42.38
2022-07-30T17:18:20.332Z,42.79
2022-07-30T17:20:49.037Z,43.05
2022-07-30T17:23:18.975Z,43.23
2022-07-30T17:25:47.490Z,43.34
2022-07-30T17:28:18.088Z,43.75
2022-07-30T17:30:47.127Z,44.12
2022-07-30T17:33:15.593Z,44.46
2022-07-30T17:35:44.215Z,44.38
2022-07-30T17:38:12.742Z,44.71
2022-07-30T17:40:42.629Z,44.97
2022-07-30T17:43:13.881Z,45.28
2022-07-30T17:45:43.627Z,45.66
2022-07-30T17:48:12.191Z,45.83
2022-07-30T17:50:40.782Z,45.40
2022-07-30T17:53:09.823Z,45.68
2022-07-30T17:55:38.356Z,45.58
2022-07-30T17:58:08.307Z,45.83
2022-07-30T18:00:36.923Z,45.66
2022-07-30T18:03:05.502Z,45.38
2022-07-30T18:05:34.138Z,45.39
2022-07-30T18:08:02.691Z,45.10
2022-07-30T18:10:31.331Z,45.32
2022-07-30T18:12:59.815Z,45.28
2022-07-30T18:15:50.005Z,45.33
2022-07-30T18:18:18.568Z,45.48
2022-07-30T18:20:48.576Z,45.45
2022-07-30T18:23:19.208Z,46.05
2022-07-30T18:25:53.181Z,46.52
2022-07-30T18:28:23.106Z,47.58
2022-07-30T18:30:55.054Z,48.20
2022-07-30T18:33:23.615Z,49.17
2022-07-30T18:35:52.347Z,50.64
2022-07-30T18:38:20.888Z,51.24
2022-07-30T18:40:58.579Z,52.01
2022-07-30T18:43:27.971Z,52.88
2022-07-30T18:46:00.292Z,53.09
2022-07-30T18:48:29.306Z,53.47
2022-07-30T18:50:57.889Z,54.35
2022-07-30T18:53:26.432Z,55.51
2022-07-30T18:55:55.065Z,56.23
2022-07-30T18:58:24.047Z,55.88
2022-07-30T19:00:53.602Z,56.01
2022-07-30T19:03:25.389Z,56.62
2022-07-30T19:05:54.003Z,56.88
2022-07-30T19:08:22.765Z,57.75
2022-07-30T19:10:51.607Z,57.69
2022-07-30T19:13:23.404Z,58.25
2022-07-30T19:15:52.276Z,58.50
2022-07-30T19:18:21.585Z,58.79
2022-07-30T19:20:51.810Z,59.06
2022-07-30T19:23:22.087Z,59.62
2022-07-30T19:25:50.552Z,60.57
2022-07-30T19:28:19.253Z,61.66
2022-07-30T19:30:48.189Z,62.26
2022-07-30T19:33:16.745Z,63.01
2022-07-30T19:35:45.811Z,63.94
2022-07-30T19:38:22.017Z,65.59
2022-07-30T19:40:53.073Z,66.16
2022-07-30T19:43:24.044Z,66.91
2022-07-30T19:45:53.384Z,67.77
2022-07-30T19:48:29.621Z,68.14
2022-07-30T19:50:59.276Z,68.26
2022-07-30T19:53:34.100Z,68.65
2022-07-30T19:56:10.649Z,69.24
2022-07-30T19:58:40.514Z,69.16
2022-07-30T20:01:09.815Z,69.07
2022-07-30T20:03:39.074Z,68.45
2022-07-30T20:06:08.816Z,68.30
2022-07-30T20:08:45.195Z,68.33
2022-07-30T20:11:21.219Z,68.41
2022-07-30T20:14:03.208Z,68.65
2022-07-30T20:16:31.910Z,68.98
2022-07-30T20:19:00.516Z,69.33
2022-07-30T20:21:56.826Z,69.63
2022-07-30T20:24:23.641Z,69.57
2022-07-30T20:26:52.252Z,69.51
2022-07-30T20:29:20.907Z,69.56
2022-07-30T20:31:50.141Z,69.79
2022-07-30T20:34:20.783Z,69.48
2022-07-30T20:36:52.961Z,70.00
2022-07-30T20:39:24.050Z,70.48
2022-07-30T20:42:07.891Z,70.59
2022-07-30T20:44:37.939Z,70.67
2022-07-30T20:47:08.419Z,70.60
2022-07-30T20:49:37.143Z,70.99
2022-07-30T20:52:07.358Z,71.43
2022-07-30T20:54:37.759Z,71.75
2022-07-30T20:57:15.620Z,71.94
2022-07-30T20:59:44.557Z,72.29
2022-07-30T21:02:15.230Z,72.35
2022-07-30T21:04:46.341Z,72.57
2022-07-30T21:07:15.091Z,72.56
2022-07-30T21:09:52.588Z,72.48
2022-07-30T21:12:32.721Z,72.48
2022-07-30T21:15:01.857Z,72.42
2022-07-30T21:17:30.362Z,72.78
2022-07-30T21:19:58.918Z,72.90
2022-07-30T21:22:29.668Z,72.65
2022-07-30T21:24:59.893Z,72.69
2022-07-30T21:27:29.910Z,72.65
2022-07-30T21:29:58.600Z,72.52
2022-07-30T21:32:28.546Z,72.73
2022-07-30T21:34:57.203Z,72.73
2022-07-30T21:37:36.665Z,72.82
2022-07-30T21:40:08.112Z,72.99
2022-07-30T21:42:37.379Z,73.18
2022-07-30T21:45:17.309Z,73.62
2022-07-30T21:47:48.033Z,73.76
2022-07-30T21:50:16.707Z,73.53
2022-07-30T21:52:45.610Z,73.53
2022-07-30T21:55:15.518Z,73.06
2022-07-30T21:57:44.055Z,72.80
2022-07-30T22:00:21.868Z,72.63
2022-07-30T22:02:52.892Z,72.34
2022-07-30T22:05:23.858Z,72.26
2022-07-30T22:08:08.627Z,72.17
2022-07-30T22:10:41.457Z,72.46
2022-07-30T22:13:10.351Z,72.42
2022-07-30T22:15:38.988Z,72.77
2022-07-30T22:18:08.005Z,73.27
2022-07-30T22:20:37.030Z,73.49
2022-07-30T22:23:08.535Z,73.73
2022-07-30T22:25:39.789Z,74.08
2022-07-30T22:28:14.582Z,74.20
2022-07-30T22:30:45.918Z,73.94
2022-07-30T22:33:16.554Z,73.67
2022-07-30T22:35:49.786Z,73.38
2022-07-30T22:38:19.786Z,73.18
2022-07-30T22:40:49.471Z,72.97
2022-07-30T22:43:19.499Z,73.00
2022-07-30T22:45:50.006Z,72.91
2022-07-30T22:48:20.747Z,73.07
2022-07-30T22:50:55.555Z,73.04
2022-07-30T22:54:11.308Z,72.98
2022-07-30T22:56:14.101Z,72.89
2022-07-30T22:58:48.731Z,72.72
2022-07-30T23:01:18.568Z,72.95
2022-07-30T23:03:48.128Z,72.76
2022-07-30T23:06:16.762Z,72.73
2022-07-30T23:08:49.289Z,72.75
2022-07-30T23:11:18.154Z,72.67
2022-07-30T23:13:48.103Z,72.37
2022-07-30T23:16:16.594Z,72.51
2022-07-30T23:18:45.268Z,72.84
2022-07-30T23:21:14.162Z,73.13
2022-07-30T23:23:42.622Z,73.40
2022-07-30T23:26:11.133Z,73.69
2022-07-30T23:28:39.647Z,73.98
2022-07-30T23:31:09.822Z,74.04
2022-07-30T23:33:38.309Z,74.14
2022-07-30T23:36:08.074Z,74.24
2022-07-30T23:38:37.105Z,74.34
2022-07-30T23:41:06.813Z,74.39
2022-07-30T23:43:35.907Z,74.41
2022-07-30T23:46:05.029Z,74.49
2022-07-30T23:48:39.681Z,74.83
2022-07-30T23:51:08.666Z,74.93
2022-07-30T23:53:37.284Z,75.36
2022-07-30T23:56:06.123Z,75.38
2022-07-30T23:58:34.774Z,75.43
